createdAt,value
2023-08-18T00:00:31.986Z,23.88
2023-08-18T00:01:32.020Z,23.81
2023-08-18T00:02:32.026Z,23.81
2023-08-18T00:03:31.960Z,23.84
2023-08-18T00:04:31.949Z,23.79
2023-08-18T00:05:31.953Z,23.78
2023-08-18T00:06:31.911Z,23.84
2023-08-18T00:07:32.036Z,23.81
2023-08-18T00:08:31.899Z,23.85
2023-08-18T00:09:31.874Z,23.73
2023-08-18T00:10:31.871Z,23.70
2023-08-18T00:11:31.872Z,23.69
2023-08-18T00:12:31.852Z,23.67
2023-08-18T00:13:31.804Z,23.79
2023-08-18T00:14:31.911Z,23.85
2023-08-18T00:15:31.784Z,23.86
2023-08-18T00:16:31.803Z,23.92
2023-08-18T00:17:32.113Z,23.89
2023-08-18T00:18:31.753Z,23.86
2023-08-18T00:19:31.761Z,23.89
2023-08-18T00:20:31.722Z,23.92
2023-08-18T00:21:31.736Z,23.86
2023-08-18T00:22:31.696Z,23.71
2023-08-18T00:23:31.681Z,23.66
2023-08-18T00:24:31.699Z,23.69
2023-08-18T00:25:31.697Z,23.59
2023-08-18T00:26:31.668Z,23.54
2023-08-18T00:27:31.625Z,23.45
2023-08-18T00:28:31.654Z,23.48
2023-08-18T00:29:31.617Z,23.46
2023-08-18T00:30:31.587Z,23.61
2023-08-18T00:31:31.650Z,23.55
2023-08-18T00:32:31.647Z,23.55
2023-08-18T00:33:31.548Z,23.55
2023-08-18T00:34:31.565Z,23.48
2023-08-18T00:35:31.581Z,23.60
2023-08-18T00:36:31.532Z,23.63
2023-08-18T00:37:31.616Z,23.64
2023-08-18T00:38:31.561Z,23.64
2023-08-18T00:39:31.477Z,23.64
2023-08-18T00:40:31.475Z,23.66
2023-08-18T00:41:31.449Z,23.64
2023-08-18T00:42:31.481Z,23.64
2023-08-18T00:43:31.428Z,23.60
2023-08-18T00:44:31.416Z,23.49
2023-08-18T00:45:31.437Z,23.42
2023-08-18T00:46:31.420Z,23.39
2023-08-18T00:47:31.745Z,23.33
2023-08-18T00:48:31.409Z,23.33
2023-08-18T00:49:31.403Z,23.34
2023-08-18T00:50:31.349Z,23.44
2023-08-18T00:51:31.315Z,23.31
2023-08-18T00:52:31.313Z,23.37
2023-08-18T00:53:31.292Z,23.41
2023-08-18T00:54:31.290Z,23.39
2023-08-18T00:55:31.307Z,23.41
2023-08-18T00:56:31.237Z,23.41
2023-08-18T00:57:31.354Z,23.48
2023-08-18T00:58:31.229Z,23.51
2023-08-18T00:59:31.250Z,23.55
2023-08-18T01:00:31.204Z,23.59
2023-08-18T01:01:31.208Z,23.64
2023-08-18T01:02:31.304Z,23.61
2023-08-18T01:03:31.171Z,23.61
2023-08-18T01:04:31.167Z,23.61
2023-08-18T01:05:31.222Z,23.61
2023-08-18T01:06:31.114Z,23.63
2023-08-18T01:07:31.381Z,23.67
2023-08-18T01:08:31.095Z,23.67
2023-08-18T01:09:31.098Z,23.64
2023-08-18T01:10:31.064Z,23.64
2023-08-18T01:11:31.063Z,23.63
2023-08-18T01:12:31.047Z,23.61
2023-08-18T01:13:31.044Z,23.66
2023-08-18T01:14:31.025Z,23.61
2023-08-18T01:15:31.001Z,23.56
2023-08-18T01:16:31.011Z,23.49
2023-08-18T01:17:31.320Z,23.52
2023-08-18T01:18:30.984Z,23.49
2023-08-18T01:19:30.955Z,23.51
2023-08-18T01:20:30.983Z,23.39
2023-08-18T01:21:30.970Z,23.34
2023-08-18T01:22:30.912Z,23.33
2023-08-18T01:23:30.958Z,23.33
2023-08-18T01:24:30.976Z,23.37
2023-08-18T01:25:30.866Z,23.39
2023-08-18T01:26:30.853Z,23.31
2023-08-18T01:27:30.848Z,23.22
2023-08-18T01:28:30.865Z,23.34
2023-08-18T01:29:30.858Z,23.34
2023-08-18T01:30:30.819Z,23.31
2023-08-18T01:31:30.907Z,23.36
2023-08-18T01:32:30.935Z,23.33
2023-08-18T01:33:30.751Z,23.41
2023-08-18T01:34:30.809Z,23.39
2023-08-18T01:35:30.733Z,23.25
2023-08-18T01:36:30.709Z,23.29
2023-08-18T01:37:30.887Z,23.37
2023-08-18T01:38:30.691Z,23.41
2023-08-18T01:39:30.688Z,23.42
2023-08-18T01:40:30.736Z,23.46
2023-08-18T01:41:30.653Z,23.39
2023-08-18T01:42:30.663Z,23.44
2023-08-18T01:43:30.621Z,23.34
2023-08-18T01:44:30.618Z,23.28
2023-08-18T01:45:30.588Z,23.36
2023-08-18T01:46:30.637Z,23.36
2023-08-18T01:47:30.889Z,23.34
2023-08-18T01:48:30.646Z,23.17
2023-08-18T01:49:30.531Z,23.14
2023-08-18T01:50:30.536Z,23.08
2023-08-18T01:51:30.590Z,23.03
2023-08-18T01:52:30.567Z,22.95
2023-08-18T01:53:30.495Z,22.91
2023-08-18T01:54:30.539Z,22.92
2023-08-18T01:55:30.475Z,22.99
2023-08-18T01:56:30.525Z,22.99
2023-08-18T01:57:30.673Z,22.92
2023-08-18T01:58:30.433Z,22.78
2023-08-18T01:59:30.501Z,22.77
2023-08-18T02:00:30.418Z,22.68
2023-08-18T02:01:30.469Z,22.73
2023-08-18T02:02:30.428Z,22.76
2023-08-18T02:03:30.463Z,22.81
2023-08-18T02:04:30.334Z,22.85
2023-08-18T02:05:30.359Z,22.89
2023-08-18T02:06:30.333Z,22.77
2023-08-18T02:07:30.491Z,22.73
2023-08-18T02:08:30.279Z,22.59
2023-08-18T02:09:30.280Z,22.58
2023-08-18T02:10:30.309Z,22.58
2023-08-18T02:11:30.243Z,22.67
2023-08-18T02:12:30.237Z,22.62
2023-08-18T02:13:30.229Z,22.56
2023-08-18T02:14:30.208Z,22.58
2023-08-18T02:15:30.211Z,22.56
2023-08-18T02:16:30.218Z,22.59
2023-08-18T02:17:30.466Z,22.73
2023-08-18T02:18:30.171Z,22.74
2023-08-18T02:19:30.139Z,22.62
2023-08-18T02:20:30.146Z,22.56
2023-08-18T02:21:30.188Z,22.64
2023-08-18T02:22:30.139Z,22.59
2023-08-18T02:23:30.093Z,22.53
2023-08-18T02:24:30.109Z,22.56
2023-08-18T02:25:30.089Z,22.53
2023-08-18T02:26:30.131Z,22.52
2023-08-18T02:27:30.324Z,22.52
2023-08-18T02:28:30.030Z,22.44
2023-08-18T02:29:30.021Z,22.58
2023-08-18T02:30:30.160Z,22.66
2023-08-18T02:31:30.039Z,22.56
2023-08-18T02:32:29.989Z,22.56
2023-08-18T02:33:29.965Z,22.51
2023-08-18T02:34:30.010Z,22.59
2023-08-18T02:35:29.948Z,22.67
2023-08-18T02:36:29.913Z,22.70
2023-08-18T02:37:30.312Z,22.74
2023-08-18T02:38:29.899Z,22.70
2023-08-18T02:39:29.910Z,22.73
2023-08-18T02:40:29.888Z,22.78
2023-08-18T02:41:29.865Z,22.78
2023-08-18T02:42:29.840Z,22.77
2023-08-18T02:43:29.937Z,22.85
2023-08-18T02:44:29.831Z,22.89
2023-08-18T02:45:29.821Z,22.91
2023-08-18T02:46:29.800Z,22.89
2023-08-18T02:47:30.042Z,22.96
2023-08-18T02:48:29.803Z,22.91
2023-08-18T02:49:29.771Z,22.93
2023-08-18T02:50:29.732Z,22.83
2023-08-18T02:51:29.709Z,22.83
2023-08-18T02:52:29.786Z,22.73
2023-08-18T02:53:29.715Z,22.71
2023-08-18T02:54:29.673Z,22.81
2023-08-18T02:55:29.693Z,22.73
2023-08-18T02:56:29.643Z,22.59
2023-08-18T02:57:29.881Z,22.62
2023-08-18T02:58:29.703Z,22.67
2023-08-18T02:59:29.618Z,22.76
2023-08-18T03:00:29.616Z,22.71
2023-08-18T03:01:29.719Z,22.70
2023-08-18T03:02:29.591Z,22.64
2023-08-18T03:03:29.659Z,22.67
2023-08-18T03:04:29.683Z,22.59
2023-08-18T03:05:29.542Z,22.55
2023-08-18T03:06:29.513Z,22.43
2023-08-18T03:07:29.916Z,22.46
2023-08-18T03:08:29.544Z,22.40
2023-08-18T03:09:29.480Z,22.43
2023-08-18T03:10:29.453Z,22.49
2023-08-18T03:11:29.506Z,22.51
2023-08-18T03:12:29.426Z,22.53
2023-08-18T03:13:29.495Z,22.48
2023-08-18T03:14:29.509Z,22.49
2023-08-18T03:15:29.409Z,22.55
2023-08-18T03:16:29.396Z,22.49
2023-08-18T03:17:29.598Z,22.41
2023-08-18T03:18:29.413Z,22.37
2023-08-18T03:19:29.428Z,22.34
2023-08-18T03:20:29.343Z,22.19
2023-08-18T03:21:29.345Z,22.21
2023-08-18T03:22:29.306Z,22.30
2023-08-18T03:23:29.338Z,22.23
2023-08-18T03:24:29.339Z,22.19
2023-08-18T03:25:29.264Z,22.23
2023-08-18T03:26:29.303Z,22.25
2023-08-18T03:27:29.438Z,22.22
2023-08-18T03:28:30.193Z,22.15
2023-08-18T03:29:29.201Z,22.25
2023-08-18T03:30:29.206Z,22.31
2023-08-18T03:31:29.207Z,22.52
2023-08-18T03:32:29.330Z,22.55
2023-08-18T03:33:29.201Z,22.62
2023-08-18T03:34:29.213Z,22.71
2023-08-18T03:35:29.151Z,22.76
2023-08-18T03:36:29.119Z,22.71
2023-08-18T03:37:29.294Z,22.56
2023-08-18T03:38:29.106Z,22.43
2023-08-18T03:39:29.090Z,22.34
2023-08-18T03:40:29.079Z,22.37
2023-08-18T03:41:29.180Z,22.38
2023-08-18T03:42:29.069Z,22.46
2023-08-18T03:43:29.079Z,22.36
2023-08-18T03:44:29.028Z,22.33
2023-08-18T03:45:29.011Z,22.44
2023-08-18T03:46:29.019Z,22.46
2023-08-18T03:47:29.330Z,22.49
2023-08-18T03:48:29.033Z,22.53
2023-08-18T03:49:28.948Z,22.58
2023-08-18T03:50:28.932Z,22.59
2023-08-18T03:51:28.938Z,22.59
2023-08-18T03:52:29.014Z,22.53
2023-08-18T03:53:28.835Z,22.53
2023-08-18T03:54:28.819Z,22.49
2023-08-18T03:55:28.822Z,22.53
2023-08-18T03:56:28.876Z,22.52
2023-08-18T03:57:28.981Z,22.48
2023-08-18T03:58:28.786Z,22.58
2023-08-18T03:59:28.754Z,22.59
2023-08-18T04:00:28.768Z,22.55
2023-08-18T04:01:28.770Z,22.53
2023-08-18T04:02:29.122Z,22.58
2023-08-18T04:03:28.722Z,22.62
2023-08-18T04:04:28.708Z,22.64
2023-08-18T04:05:28.688Z,22.62
2023-08-18T04:06:28.669Z,22.62
2023-08-18T04:07:28.692Z,22.66
2023-08-18T04:08:28.658Z,22.61
2023-08-18T04:09:28.652Z,22.59
2023-08-18T04:10:28.652Z,22.59
2023-08-18T04:11:28.690Z,22.52
2023-08-18T04:12:28.818Z,22.55
2023-08-18T04:13:28.571Z,22.48
2023-08-18T04:14:28.652Z,22.44
2023-08-18T04:15:28.589Z,22.48
2023-08-18T04:16:28.546Z,22.48
2023-08-18T04:17:28.576Z,22.52
2023-08-18T04:18:28.566Z,22.53
2023-08-18T04:19:28.534Z,22.52
2023-08-18T04:20:28.469Z,22.43
2023-08-18T04:21:28.525Z,22.43
2023-08-18T04:22:28.782Z,22.36
2023-08-18T04:23:28.460Z,22.43
2023-08-18T04:24:28.441Z,22.36
2023-08-18T04:25:28.433Z,22.38
2023-08-18T04:26:28.415Z,22.38
2023-08-18T04:27:28.478Z,22.36
2023-08-18T04:28:28.362Z,22.36
2023-08-18T04:29:28.395Z,22.36
2023-08-18T04:30:28.359Z,22.41
2023-08-18T04:31:28.524Z,22.37
2023-08-18T04:32:28.566Z,22.27
2023-08-18T04:33:28.470Z,22.34
2023-08-18T04:34:28.306Z,22.31
2023-08-18T04:35:28.288Z,22.30
2023-08-18T04:36:28.292Z,22.30
2023-08-18T04:37:28.266Z,22.36
2023-08-18T04:38:28.237Z,22.40
2023-08-18T04:39:28.484Z,22.40
2023-08-18T04:40:28.222Z,22.36
2023-08-18T04:41:28.289Z,22.44
2023-08-18T04:42:28.381Z,22.40
2023-08-18T04:43:28.217Z,22.44
2023-08-18T04:44:28.160Z,22.46
2023-08-18T04:45:28.159Z,22.36
2023-08-18T04:46:28.203Z,22.36
2023-08-18T04:47:28.128Z,22.36
2023-08-18T04:48:28.125Z,22.46
2023-08-18T04:49:28.184Z,22.52
2023-08-18T04:50:28.075Z,22.52
2023-08-18T04:51:28.086Z,22.58
2023-08-18T04:52:28.515Z,22.61
2023-08-18T04:53:28.069Z,22.58
2023-08-18T04:54:28.029Z,22.66
2023-08-18T04:55:28.017Z,22.56
2023-08-18T04:56:28.080Z,22.53
2023-08-18T04:57:27.989Z,22.58
2023-08-18T04:58:28.153Z,22.64
2023-08-18T04:59:28.022Z,22.64
2023-08-18T05:00:28.012Z,22.64
2023-08-18T05:01:27.931Z,22.59
2023-08-18T05:02:28.231Z,22.67
2023-08-18T05:03:28.061Z,22.56
2023-08-18T05:04:27.958Z,22.59
2023-08-18T05:05:27.881Z,22.62
2023-08-18T05:06:27.930Z,22.58
2023-08-18T05:07:27.861Z,22.66
2023-08-18T05:08:27.974Z,22.67
2023-08-18T05:09:27.828Z,22.68
2023-08-18T05:10:27.944Z,22.76
2023-08-18T05:11:27.789Z,22.89
2023-08-18T05:12:28.148Z,22.93
2023-08-18T05:13:27.968Z,22.96
2023-08-18T05:14:27.744Z,23.08
2023-08-18T05:15:27.748Z,23.13
2023-08-18T05:16:27.761Z,23.17
2023-08-18T05:17:27.997Z,23.28
2023-08-18T05:18:27.689Z,23.39
2023-08-18T05:19:27.691Z,23.39
2023-08-18T05:20:27.709Z,23.45
2023-08-18T05:21:27.697Z,23.41
2023-08-18T05:23:27.645Z,23.51
2023-08-18T05:24:27.624Z,23.54
2023-08-18T05:25:28.051Z,23.66
2023-08-18T05:26:27.682Z,23.71
2023-08-18T05:27:27.620Z,23.92
2023-08-18T05:29:24.973Z,24.31
2023-08-18T05:30:25.952Z,24.33
2023-08-18T05:31:25.954Z,24.43
2023-08-18T05:32:25.992Z,24.48
2023-08-18T05:33:25.956Z,24.68
2023-08-18T05:34:25.911Z,24.89
2023-08-18T05:35:26.008Z,25.01
2023-08-18T05:36:25.927Z,25.09
2023-08-18T05:37:25.914Z,25.22
2023-08-18T05:38:25.894Z,25.30
2023-08-18T05:39:25.856Z,25.31
2023-08-18T05:40:25.864Z,25.36
2023-08-18T05:41:25.936Z,25.36
2023-08-18T05:42:25.808Z,25.43
2023-08-18T05:43:25.831Z,25.41
2023-08-18T05:44:25.800Z,25.38
2023-08-18T05:45:25.773Z,25.28
2023-08-18T05:46:25.836Z,25.14
2023-08-18T05:47:26.012Z,25.01
2023-08-18T05:48:25.710Z,24.84
2023-08-18T05:49:25.747Z,24.85
2023-08-18T05:50:25.717Z,24.93
2023-08-18T05:51:25.739Z,25.06
2023-08-18T05:52:25.771Z,25.19
2023-08-18T05:53:25.672Z,25.45
2023-08-18T05:54:25.665Z,25.41
2023-08-18T05:55:25.650Z,25.23
2023-08-18T05:56:25.732Z,25.11
2023-08-18T05:57:25.589Z,24.82
2023-08-18T05:58:25.622Z,24.66
2023-08-18T05:59:25.595Z,24.58
2023-08-18T06:00:25.671Z,24.47
2023-08-18T06:01:25.628Z,24.47
2023-08-18T06:02:25.604Z,24.52
2023-08-18T06:03:25.585Z,24.52
2023-08-18T06:04:25.509Z,24.53
2023-08-18T06:05:25.588Z,24.65
2023-08-18T06:06:25.514Z,24.75
2023-08-18T06:07:25.482Z,24.79
2023-08-18T06:08:25.534Z,24.89
2023-08-18T06:09:25.463Z,24.82
2023-08-18T06:10:25.476Z,25.06
2023-08-18T06:11:25.457Z,25.18
2023-08-18T06:12:25.468Z,25.22
2023-08-18T06:13:25.403Z,25.22
2023-08-18T06:14:25.408Z,25.37
2023-08-18T06:15:25.491Z,25.48
2023-08-18T06:16:25.399Z,25.53
2023-08-18T06:17:25.347Z,25.21
2023-08-18T06:18:25.473Z,25.21
2023-08-18T06:19:25.453Z,25.28
2023-08-18T06:20:25.316Z,25.19
2023-08-18T06:21:25.293Z,25.19
2023-08-18T06:22:25.402Z,25.38
2023-08-18T06:23:25.313Z,25.45
2023-08-18T06:24:25.288Z,25.41
2023-08-18T06:25:25.252Z,25.43
2023-08-18T06:26:25.268Z,25.27
2023-08-18T06:27:25.286Z,25.16
2023-08-18T06:28:25.226Z,25.33
2023-08-18T06:29:25.308Z,25.19
2023-08-18T06:30:25.197Z,25.30
2023-08-18T06:31:25.320Z,25.49
2023-08-18T06:32:25.220Z,25.51
2023-08-18T06:33:25.160Z,25.33
2023-08-18T06:34:25.193Z,25.34
2023-08-18T06:35:25.117Z,25.36
2023-08-18T06:36:25.180Z,25.18
2023-08-18T06:37:25.114Z,25.19
2023-08-18T06:38:25.129Z,25.00
2023-08-18T06:39:25.144Z,24.97
2023-08-18T06:40:25.073Z,24.96
2023-08-18T06:41:25.080Z,24.99
2023-08-18T06:42:25.036Z,25.00
2023-08-18T06:43:25.037Z,25.06
2023-08-18T06:44:25.046Z,25.08
2023-08-18T06:45:25.057Z,25.09
2023-08-18T06:46:25.101Z,25.08
2023-08-18T06:47:25.009Z,25.09
2023-08-18T06:48:24.973Z,25.14
2023-08-18T06:49:24.940Z,25.34
2023-08-18T06:50:24.959Z,25.21
2023-08-18T06:51:24.953Z,25.12
2023-08-18T06:52:24.933Z,25.18
2023-08-18T06:53:24.990Z,25.41
2023-08-18T06:54:24.898Z,25.40
2023-08-18T06:55:25.456Z,25.36
2023-08-18T06:56:24.846Z,25.38
2023-08-18T06:57:24.981Z,25.40
2023-08-18T06:58:24.866Z,25.68
2023-08-18T06:59:24.801Z,25.88
2023-08-18T07:00:24.835Z,26.10
2023-08-18T07:01:24.843Z,26.20
2023-08-18T07:02:24.811Z,26.21
2023-08-18T07:03:24.920Z,26.33
2023-08-18T07:04:24.818Z,26.34
2023-08-18T07:05:24.725Z,26.34
2023-08-18T07:06:24.758Z,26.11
2023-08-18T07:07:24.709Z,26.07
2023-08-18T07:08:24.809Z,26.20
2023-08-18T07:09:24.662Z,26.36
2023-08-18T07:10:24.677Z,26.52
2023-08-18T07:11:24.789Z,26.48
2023-08-18T07:12:24.641Z,26.61
2023-08-18T07:13:24.610Z,26.51
2023-08-18T07:14:24.625Z,26.53
2023-08-18T07:15:24.589Z,26.67
2023-08-18T07:16:24.660Z,26.75
2023-08-18T07:17:24.550Z,26.93
2023-08-18T07:18:24.587Z,26.80
2023-08-18T07:19:24.531Z,26.56
2023-08-18T07:20:24.808Z,26.56
2023-08-18T07:21:24.523Z,26.43
2023-08-18T07:22:24.522Z,26.63
2023-08-18T07:23:24.589Z,26.78
2023-08-18T07:24:24.896Z,26.78
2023-08-18T07:25:24.452Z,26.86
2023-08-18T07:26:24.489Z,26.97
2023-08-18T07:27:24.478Z,26.90
2023-08-18T07:28:24.473Z,26.97
2023-08-18T07:29:24.400Z,27.05
2023-08-18T07:30:24.520Z,27.17
2023-08-18T07:31:24.427Z,27.42
2023-08-18T07:32:24.392Z,27.49
2023-08-18T07:33:24.388Z,27.45
2023-08-18T07:34:24.337Z,27.64
2023-08-18T07:35:24.374Z,27.63
2023-08-18T07:36:24.399Z,27.72
2023-08-18T07:37:51.864Z,27.82
2023-08-18T07:38:24.361Z,28.09
2023-08-18T07:39:24.271Z,28.00
2023-08-18T07:40:24.442Z,27.85
2023-08-18T07:41:24.265Z,27.90
2023-08-18T07:42:24.239Z,27.87
2023-08-18T07:43:24.214Z,28.00
2023-08-18T07:44:24.221Z,28.09
2023-08-18T07:45:24.280Z,28.17
2023-08-18T07:46:24.209Z,28.05
2023-08-18T07:47:24.216Z,27.87
2023-08-18T07:48:24.196Z,27.91
2023-08-18T07:49:24.403Z,28.00
2023-08-18T07:50:24.176Z,28.20
2023-08-18T07:51:24.123Z,27.97
2023-08-18T07:52:24.199Z,27.97
2023-08-18T07:53:24.092Z,28.10
2023-08-18T07:54:24.111Z,28.49
2023-08-18T07:55:24.071Z,28.49
2023-08-18T07:56:24.068Z,28.59
2023-08-18T07:57:24.033Z,28.94
2023-08-18T07:58:24.023Z,29.06
2023-08-18T07:59:24.057Z,29.04
2023-08-18T08:00:24.014Z,28.72
2023-08-18T08:01:24.128Z,28.81
2023-08-18T08:02:30.105Z,29.10
2023-08-18T08:03:24.075Z,28.71
2023-08-18T08:04:23.975Z,28.49
2023-08-18T08:05:23.941Z,28.62
2023-08-18T08:06:23.936Z,28.80
2023-08-18T08:07:23.929Z,28.40
2023-08-18T08:08:23.936Z,28.34
2023-08-18T08:09:23.918Z,28.42
2023-08-18T08:10:23.922Z,28.40
2023-08-18T08:11:23.856Z,28.47
2023-08-18T08:12:23.877Z,28.13
2023-08-18T08:13:23.935Z,27.87
2023-08-18T08:14:23.872Z,28.13
2023-08-18T08:15:23.830Z,28.12
2023-08-18T08:16:23.906Z,28.43
2023-08-18T08:17:23.798Z,28.68
2023-08-18T08:18:23.832Z,28.57
2023-08-18T08:19:23.755Z,28.64
2023-08-18T08:20:30.482Z,28.57
2023-08-18T08:21:25.755Z,28.77
2023-08-18T08:22:23.874Z,29.00
2023-08-18T08:23:23.763Z,29.07
2023-08-18T08:24:23.767Z,29.21
2023-08-18T08:25:23.724Z,29.27
2023-08-18T08:26:23.729Z,29.47
2023-08-18T08:27:23.786Z,29.49
2023-08-18T08:28:23.783Z,29.63
2023-08-18T08:29:23.749Z,29.81
2023-08-18T08:30:35.569Z,29.84
2023-08-18T08:31:23.678Z,29.91
2023-08-18T08:32:23.688Z,29.81
2023-08-18T08:33:23.624Z,30.17
2023-08-18T08:34:23.690Z,30.48
2023-08-18T08:35:28.642Z,30.55
2023-08-18T08:36:23.588Z,30.40
2023-08-18T08:37:23.550Z,30.24
2023-08-18T08:38:23.534Z,30.08
2023-08-18T08:39:23.502Z,30.00
2023-08-18T08:40:23.522Z,30.00
2023-08-18T08:41:23.603Z,30.14
2023-08-18T08:42:23.504Z,30.30
2023-08-18T08:43:23.525Z,30.71
2023-08-18T08:44:23.503Z,30.93
2023-08-18T08:45:23.478Z,30.60
2023-08-18T08:46:23.495Z,30.64
2023-08-18T08:47:23.418Z,30.49
2023-08-18T08:48:23.418Z,30.70
2023-08-18T08:49:26.154Z,30.78
2023-08-18T08:50:23.386Z,31.04
2023-08-18T08:51:23.391Z,30.99
2023-08-18T08:52:23.337Z,31.26
2023-08-18T08:53:23.335Z,31.24
2023-08-18T08:54:23.324Z,31.12
2023-08-18T08:55:23.327Z,31.08
2023-08-18T08:56:23.294Z,30.95
2023-08-18T08:57:23.282Z,31.22
2023-08-18T08:58:23.618Z,31.45
2023-08-18T08:59:23.249Z,31.46
2023-08-18T09:00:28.028Z,31.42
2023-08-18T09:01:23.465Z,31.63
2023-08-18T09:02:23.246Z,31.67
2023-08-18T09:03:23.269Z,31.76
2023-08-18T09:04:23.175Z,31.60
2023-08-18T09:05:27.749Z,31.87
2023-08-18T09:06:23.160Z,32.17
2023-08-18T09:07:23.156Z,31.89
2023-08-18T09:08:23.181Z,31.91
2023-08-18T09:09:23.153Z,32.04
2023-08-18T09:10:23.125Z,31.86
2023-08-18T09:11:24.746Z,32.01
2023-08-18T09:12:23.074Z,32.23
2023-08-18T09:13:23.098Z,32.39
2023-08-18T09:14:23.085Z,32.51
2023-08-18T09:15:23.051Z,32.72
2023-08-18T09:16:27.561Z,32.87
2023-08-18T09:17:23.517Z,32.94
2023-08-18T09:18:23.152Z,32.90
2023-08-18T09:19:23.008Z,32.79
2023-08-18T09:20:22.998Z,32.35
2023-08-18T09:21:22.996Z,32.20
2023-08-18T09:22:22.993Z,32.31
2023-08-18T09:23:22.983Z,32.42
2023-08-18T09:24:23.514Z,32.45
2023-08-18T09:25:27.160Z,31.95
2023-08-18T09:26:22.934Z,31.74
2023-08-18T09:27:22.907Z,31.82
2023-08-18T09:28:22.940Z,31.99
2023-08-18T09:29:22.873Z,32.17
2023-08-18T09:30:22.915Z,32.48
2023-08-18T09:31:22.879Z,32.64
2023-08-18T09:32:22.843Z,32.65
2023-08-18T09:33:24.723Z,32.95
2023-08-18T09:34:22.869Z,32.85
2023-08-18T09:35:22.808Z,32.45
2023-08-18T09:36:22.790Z,32.70
2023-08-18T09:37:24.760Z,32.38
2023-08-18T09:38:22.773Z,32.54
2023-08-18T09:39:22.738Z,32.68
2023-08-18T09:40:22.740Z,32.94
2023-08-18T09:41:22.738Z,32.99
2023-08-18T09:42:22.774Z,33.10
2023-08-18T09:43:22.707Z,33.20
2023-08-18T09:44:22.678Z,33.03
2023-08-18T09:45:22.683Z,32.64
2023-08-18T09:46:22.666Z,32.79
2023-08-18T09:47:22.656Z,33.01
2023-08-18T09:48:22.698Z,32.80
2023-08-18T09:49:22.646Z,32.88
2023-08-18T09:50:22.600Z,33.12
2023-08-18T09:51:23.072Z,33.04
2023-08-18T09:52:22.593Z,33.30
2023-08-18T09:53:22.586Z,33.09
2023-08-18T09:54:22.563Z,33.32
2023-08-18T09:55:22.580Z,33.48
2023-08-18T09:56:22.545Z,33.66
2023-08-18T09:57:22.543Z,33.57
2023-08-18T09:58:22.532Z,33.14
2023-08-18T09:59:22.576Z,33.07
2023-08-18T10:00:22.587Z,32.98
2023-08-18T10:01:22.520Z,33.07
2023-08-18T10:02:22.463Z,32.88
2023-08-18T10:03:22.449Z,33.39
2023-08-18T10:04:22.497Z,33.78
2023-08-18T10:05:23.192Z,33.81
2023-08-18T10:06:22.410Z,33.67
2023-08-18T10:07:22.438Z,33.32
2023-08-18T10:08:22.401Z,33.33
2023-08-18T10:09:22.382Z,33.47
2023-08-18T10:10:22.347Z,33.36
2023-08-18T10:11:23.031Z,33.17
2023-08-18T10:12:22.362Z,33.27
2023-08-18T10:13:22.322Z,33.41
2023-08-18T10:14:22.328Z,33.51
2023-08-18T10:15:22.315Z,33.79
2023-08-18T10:16:22.357Z,33.95
2023-08-18T10:17:22.284Z,33.95
2023-08-18T10:18:22.248Z,33.85
2023-08-18T10:19:22.262Z,33.81
2023-08-18T10:20:22.248Z,34.16
2023-08-18T10:21:22.249Z,34.42
2023-08-18T10:22:22.197Z,34.78
2023-08-18T10:23:22.214Z,35.02
2023-08-18T10:24:22.210Z,35.02
2023-08-18T10:25:22.202Z,34.91
2023-08-18T10:26:22.183Z,34.62
2023-08-18T10:27:22.178Z,34.80
2023-08-18T10:28:22.167Z,34.62
2023-08-18T10:29:30.265Z,34.62
2023-08-18T10:30:22.125Z,34.64
2023-08-18T10:31:22.193Z,34.91
2023-08-18T10:32:22.177Z,35.12
2023-08-18T10:33:22.084Z,35.19
2023-08-18T10:34:22.070Z,35.20
2023-08-18T10:35:22.193Z,35.32
2023-08-18T10:36:22.059Z,35.12
2023-08-18T10:37:22.048Z,34.94
2023-08-18T10:38:22.005Z,35.01
2023-08-18T10:39:22.018Z,34.90
2023-08-18T10:40:22.030Z,34.87
2023-08-18T10:41:21.988Z,34.91
2023-08-18T10:42:21.971Z,34.92
2023-08-18T10:43:21.949Z,34.94
2023-08-18T10:44:21.998Z,35.12
2023-08-18T10:45:21.926Z,35.02
2023-08-18T10:46:21.954Z,34.99
2023-08-18T10:47:21.900Z,35.09
2023-08-18T10:48:21.884Z,35.32
2023-08-18T10:49:21.911Z,35.19
2023-08-18T10:50:21.878Z,35.14
2023-08-18T10:51:21.922Z,34.79
2023-08-18T10:52:21.876Z,34.92
2023-08-18T10:53:21.956Z,35.07
2023-08-18T10:54:21.871Z,35.26
2023-08-18T10:55:21.797Z,35.48
2023-08-18T10:56:21.791Z,35.10
2023-08-18T10:57:21.780Z,34.79
2023-08-18T10:58:21.797Z,34.56
2023-08-18T10:59:21.758Z,35.12
2023-08-18T11:00:21.771Z,35.12
2023-08-18T11:01:21.795Z,35.31
2023-08-18T11:02:21.697Z,35.21
2023-08-18T11:03:21.762Z,35.32
2023-08-18T11:04:21.712Z,35.57
2023-08-18T11:05:21.694Z,35.68
2023-08-18T11:06:21.678Z,35.54
2023-08-18T11:07:21.689Z,35.42
2023-08-18T11:08:21.677Z,35.63
2023-08-18T11:09:21.637Z,35.61
2023-08-18T11:10:21.636Z,35.48
2023-08-18T11:11:21.633Z,35.51
2023-08-18T11:12:21.606Z,35.76
2023-08-18T11:13:21.574Z,35.70
2023-08-18T11:14:21.581Z,35.72
2023-08-18T11:15:21.563Z,35.54
2023-08-18T11:16:21.582Z,35.50
2023-08-18T11:17:21.550Z,35.76
2023-08-18T11:18:21.533Z,35.76
2023-08-18T11:19:21.569Z,35.97
2023-08-18T11:20:21.492Z,36.17
2023-08-18T11:21:21.502Z,35.83
2023-08-18T11:22:21.479Z,35.88
2023-08-18T11:23:21.493Z,35.97
2023-08-18T11:24:21.691Z,35.76
2023-08-18T11:25:21.438Z,35.98
2023-08-18T11:26:21.438Z,36.14
2023-08-18T11:27:21.423Z,35.97
2023-08-18T11:28:21.415Z,35.16
2023-08-18T11:29:21.373Z,35.13
2023-08-18T11:30:21.381Z,35.41
2023-08-18T11:31:21.459Z,35.72
2023-08-18T11:32:21.348Z,35.81
2023-08-18T11:33:21.347Z,35.35
2023-08-18T11:34:21.331Z,35.60
2023-08-18T11:35:21.344Z,35.70
2023-08-18T11:36:21.316Z,35.95
2023-08-18T11:37:21.376Z,36.20
2023-08-18T11:38:21.289Z,36.33
2023-08-18T11:39:21.269Z,36.33
2023-08-18T11:40:21.335Z,36.06
2023-08-18T11:41:21.241Z,35.70
2023-08-18T11:42:21.247Z,35.63
2023-08-18T11:43:21.191Z,35.48
2023-08-18T11:44:21.204Z,35.57
2023-08-18T11:45:21.213Z,36.02
2023-08-18T11:46:21.202Z,36.07
2023-08-18T11:47:21.167Z,36.23
2023-08-18T11:48:21.140Z,36.15
2023-08-18T11:49:21.117Z,35.66
2023-08-18T11:50:21.285Z,35.75
2023-08-18T11:51:21.091Z,35.97
2023-08-18T11:52:21.094Z,36.30
2023-08-18T11:53:21.077Z,35.65
2023-08-18T11:54:21.096Z,35.61
2023-08-18T11:55:21.081Z,35.85
2023-08-18T11:56:21.073Z,35.95
2023-08-18T11:57:21.036Z,36.13
2023-08-18T11:58:21.019Z,36.54
2023-08-18T11:59:21.015Z,36.66
2023-08-18T12:00:20.989Z,36.52
2023-08-18T12:01:21.381Z,36.36
2023-08-18T12:02:20.977Z,36.03
2023-08-18T12:03:20.977Z,36.00
2023-08-18T12:04:20.966Z,35.53
2023-08-18T12:05:20.979Z,35.66
2023-08-18T12:06:20.935Z,35.85
2023-08-18T12:07:21.002Z,35.88
2023-08-18T12:08:20.876Z,35.95
2023-08-18T12:09:20.912Z,36.02
2023-08-18T12:10:20.839Z,35.91
2023-08-18T12:11:20.835Z,36.22
2023-08-18T12:12:20.886Z,36.40
2023-08-18T12:13:20.868Z,36.79
2023-08-18T12:14:20.824Z,36.94
2023-08-18T12:15:20.826Z,36.83
2023-08-18T12:16:20.760Z,36.74
2023-08-18T12:17:20.777Z,36.33
2023-08-18T12:18:20.818Z,36.27
2023-08-18T12:19:20.731Z,36.02
2023-08-18T12:20:20.768Z,35.75
2023-08-18T12:21:20.715Z,35.76
2023-08-18T12:22:20.695Z,35.88
2023-08-18T12:23:20.767Z,36.22
2023-08-18T12:24:20.664Z,36.47
2023-08-18T12:25:20.659Z,36.47
2023-08-18T12:26:20.651Z,36.47
2023-08-18T12:27:20.653Z,36.45
2023-08-18T12:28:20.658Z,36.69
2023-08-18T12:29:20.623Z,36.96
2023-08-18T12:30:20.654Z,37.26
2023-08-18T12:31:20.606Z,37.39
2023-08-18T12:32:20.589Z,37.50
2023-08-18T12:33:20.574Z,37.74
2023-08-18T12:34:20.589Z,37.98
2023-08-18T12:35:20.553Z,38.17
2023-08-18T12:36:20.535Z,37.42
2023-08-18T12:37:20.528Z,37.27
2023-08-18T12:38:20.508Z,37.26
2023-08-18T12:39:20.516Z,37.15
2023-08-18T12:40:20.476Z,36.45
2023-08-18T12:41:20.468Z,36.82
2023-08-18T12:42:20.485Z,36.88
2023-08-18T12:43:20.444Z,36.88
2023-08-18T12:44:20.424Z,37.03
2023-08-18T12:45:20.462Z,37.34
2023-08-18T12:46:20.452Z,37.62
2023-08-18T12:47:20.436Z,37.76
2023-08-18T12:48:20.384Z,37.95
2023-08-18T12:49:20.368Z,38.11
2023-08-18T12:50:20.354Z,38.14
2023-08-18T12:51:20.355Z,38.29
2023-08-18T12:52:20.328Z,38.45
2023-08-18T12:53:20.323Z,38.16
2023-08-18T12:54:20.312Z,37.57